North Liberty, Ohio
Current Conditions -  °F | °C
As of 5:56 PM on Monday 24 Nov 2014 (Local Time) from K4I3 Reporting Station
Overcast Overcast  
Wind Chill: 35°   Ceiling: 3400
Heat Index: 43°   Visibility: 10mi
Dew Point: 32°   Wind: 17mph
Humidity: 66%   Direction: 230°SW
Pressure: 29.71"   Gusts: 35mph
Location:  40.557°N, 82.3946°W
Report Text: K4I3 242256Z AUTO 23015G30KT 10SM OVC034 06/00 A2971 RMK AO2
Loading
Personal Weather Stations






























Interactive Weather Map New forecast layout! Learn more

10-Day Weather Forecast

Advertisements
Track Severe Weather on mobile